Amherst, New York
Current Conditions -  °F | °C
As of 3:54 AM on Sunday 26 Oct 2014 (Local Time) from KBUF Reporting Station
Few Clouds Few Clouds  
Wind Chill: 42°   Ceiling: Unl
Heat Index: 48°   Visibility: 10mi
Dew Point: 37°   Wind: 14mph
Humidity: 66%   Direction: 260°W
Pressure: 29.67"   Gusts: NA
Location:  43.0271°N, 78.7597°W
Report Text: KBUF 260754Z 26012KT 10SM FEW045 FEW065 09/03 A2967 RMK AO2 SLP049 T00890028
Loading
Personal Weather Stations






























Interactive Weather Map
Tropical Storm Tracking
New forecast layout! Learn more

10-Day Weather Forecast

Advertisements
Track Severe Weather on mobile